sensor_id;sensor_type;location;lat;lon;timestamp;temperature;humidity
37870;DHT22;62531;53.326;-1.368;2022-09-02T00:00:34;24.00;49.50
37870;DHT22;62531;53.326;-1.368;2022-09-02T00:04:35;24.00;49.50
37870;DHT22;62531;53.326;-1.368;2022-09-02T00:08:37;23.90;49.60
37870;DHT22;62531;53.326;-1.368;2022-09-02T00:12:39;23.90;49.60
37870;DHT22;62531;53.326;-1.368;2022-09-02T00:16:40;23.90;49.60
37870;DHT22;62531;53.326;-1.368;2022-09-02T00:20:44;23.90;49.70
37870;DHT22;62531;53.326;-1.368;2022-09-02T00:24:45;23.80;49.70
37870;DHT22;62531;53.326;-1.368;2022-09-02T00:28:46;23.80;49.70
37870;DHT22;62531;53.326;-1.368;2022-09-02T00:32:48;23.80;49.70
37870;DHT22;62531;53.326;-1.368;2022-09-02T00:36:49;23.70;49.70
37870;DHT22;62531;53.326;-1.368;2022-09-02T00:40:50;23.70;49.70
37870;DHT22;62531;53.326;-1.368;2022-09-02T00:44:52;23.60;49.70
37870;DHT22;62531;53.326;-1.368;2022-09-02T00:49:13;23.60;49.80
37870;DHT22;62531;53.326;-1.368;2022-09-02T00:53:14;23.60;49.80
37870;DHT22;62531;53.326;-1.368;2022-09-02T00:57:18;23.50;49.80
37870;DHT22;62531;53.326;-1.368;2022-09-02T01:01:23;23.50;49.80
37870;DHT22;62531;53.326;-1.368;2022-09-02T01:05:28;23.50;49.90
37870;DHT22;62531;53.326;-1.368;2022-09-02T01:09:29;23.50;49.90
37870;DHT22;62531;53.326;-1.368;2022-09-02T01:13:37;23.40;49.90
37870;DHT22;62531;53.326;-1.368;2022-09-02T01:17:45;23.40;49.90
37870;DHT22;62531;53.326;-1.368;2022-09-02T01:21:55;23.40;50.00
37870;DHT22;62531;53.326;-1.368;2022-09-02T01:25:57;23.30;50.00
37870;DHT22;62531;53.326;-1.368;2022-09-02T01:29:59;23.30;50.00
37870;DHT22;62531;53.326;-1.368;2022-09-02T01:34:01;23.30;50.00
37870;DHT22;62531;53.326;-1.368;2022-09-02T01:38:03;23.30;50.10
37870;DHT22;62531;53.326;-1.368;2022-09-02T01:42:04;23.30;50.10
37870;DHT22;62531;53.326;-1.368;2022-09-02T01:46:05;23.20;50.10
37870;DHT22;62531;53.326;-1.368;2022-09-02T01:50:07;23.20;50.10
37870;DHT22;62531;53.326;-1.368;2022-09-02T01:54:09;23.20;50.10
37870;DHT22;62531;53.326;-1.368;2022-09-02T01:58:10;23.20;50.20
37870;DHT22;62531;53.326;-1.368;2022-09-02T02:02:12;23.10;50.20
37870;DHT22;62531;53.326;-1.368;2022-09-02T02:06:16;23.10;50.20
37870;DHT22;62531;53.326;-1.368;2022-09-02T02:10:20;23.10;50.20
37870;DHT22;62531;53.326;-1.368;2022-09-02T02:14:22;23.10;50.20
37870;DHT22;62531;53.326;-1.368;2022-09-02T02:18:23;23.10;50.30
37870;DHT22;62531;53.326;-1.368;2022-09-02T02:22:24;23.10;50.30
37870;DHT22;62531;53.326;-1.368;2022-09-02T02:26:28;23.00;50.30
37870;DHT22;62531;53.326;-1.368;2022-09-02T02:30:29;23.00;50.30
37870;DHT22;62531;53.326;-1.368;2022-09-02T02:34:31;23.00;50.30
37870;DHT22;62531;53.326;-1.368;2022-09-02T02:38:34;23.00;50.30
37870;DHT22;62531;53.326;-1.368;2022-09-02T02:42:35;23.00;50.30
37870;DHT22;62531;53.326;-1.368;2022-09-02T02:46:36;23.00;50.40
37870;DHT22;62531;53.326;-1.368;2022-09-02T02:50:38;22.90;50.30
37870;DHT22;62531;53.326;-1.368;2022-09-02T02:54:40;22.90;50.40
37870;DHT22;62531;53.326;-1.368;2022-09-02T02:58:42;22.90;50.40
37870;DHT22;62531;53.326;-1.368;2022-09-02T03:02:43;22.90;50.40
37870;DHT22;62531;53.326;-1.368;2022-09-02T03:06:44;22.90;50.40
37870;DHT22;62531;53.326;-1.368;2022-09-02T03:10:47;22.80;50.40
37870;DHT22;62531;53.326;-1.368;2022-09-02T03:14:50;22.80;50.40
37870;DHT22;62531;53.326;-1.368;2022-09-02T03:18:51;22.80;50.40
37870;DHT22;62531;53.326;-1.368;2022-09-02T03:22:55;22.80;50.50
37870;DHT22;62531;53.326;-1.368;2022-09-02T03:26:56;22.80;50.50
37870;DHT22;62531;53.326;-1.368;2022-09-02T03:30:58;22.80;50.50
37870;DHT22;62531;53.326;-1.368;2022-09-02T03:35:01;22.80;50.50
37870;DHT22;62531;53.326;-1.368;2022-09-02T03:39:03;22.70;50.50
37870;DHT22;62531;53.326;-1.368;2022-09-02T03:43:04;22.70;50.50
37870;DHT22;62531;53.326;-1.368;2022-09-02T03:47:06;22.70;50.50
37870;DHT22;62531;53.326;-1.368;2022-09-02T03:51:07;22.70;50.50
37870;DHT22;62531;53.326;-1.368;2022-09-02T03:55:09;22.70;50.50
37870;DHT22;62531;53.326;-1.368;2022-09-02T03:59:10;22.70;50.50
37870;DHT22;62531;53.326;-1.368;2022-09-02T04:03:11;22.70;50.60
37870;DHT22;62531;53.326;-1.368;2022-09-02T04:07:13;22.70;50.60
37870;DHT22;62531;53.326;-1.368;2022-09-02T04:11:17;22.70;50.60
37870;DHT22;62531;53.326;-1.368;2022-09-02T04:15:20;22.60;50.60
37870;DHT22;62531;53.326;-1.368;2022-09-02T04:19:21;22.60;50.60
37870;DHT22;62531;53.326;-1.368;2022-09-02T04:23:22;22.60;50.60
37870;DHT22;62531;53.326;-1.368;2022-09-02T04:27:24;22.60;50.60
37870;DHT22;62531;53.326;-1.368;2022-09-02T04:31:25;22.60;50.60
37870;DHT22;62531;53.326;-1.368;2022-09-02T04:35:28;22.60;50.70
37870;DHT22;62531;53.326;-1.368;2022-09-02T04:39:29;22.60;50.70
37870;DHT22;62531;53.326;-1.368;2022-09-02T04:43:30;22.60;50.70
37870;DHT22;62531;53.326;-1.368;2022-09-02T04:47:32;22.50;50.70
37870;DHT22;62531;53.326;-1.368;2022-09-02T04:51:33;22.50;50.70
37870;DHT22;62531;53.326;-1.368;2022-09-02T04:55:36;22.50;50.70
37870;DHT22;62531;53.326;-1.368;2022-09-02T04:59:38;22.50;50.70
37870;DHT22;62531;53.326;-1.368;2022-09-02T05:03:40;22.50;50.80
37870;DHT22;62531;53.326;-1.368;2022-09-02T05:07:41;22.50;50.80
37870;DHT22;62531;53.326;-1.368;2022-09-02T05:11:43;22.40;51.20
37870;DHT22;62531;53.326;-1.368;2022-09-02T05:15:44;22.40;50.80
37870;DHT22;62531;53.326;-1.368;2022-09-02T05:19:46;22.40;50.80
37870;DHT22;62531;53.326;-1.368;2022-09-02T05:23:48;22.40;50.80
37870;DHT22;62531;53.326;-1.368;2022-09-02T05:27:50;22.40;50.80
37870;DHT22;62531;53.326;-1.368;2022-09-02T05:31:52;22.40;50.90
37870;DHT22;62531;53.326;-1.368;2022-09-02T05:35:53;22.40;50.80
37870;DHT22;62531;53.326;-1.368;2022-09-02T05:39:54;22.40;50.90
37870;DHT22;62531;53.326;-1.368;2022-09-02T05:43:58;22.40;50.90
37870;DHT22;62531;53.326;-1.368;2022-09-02T05:47:59;22.40;50.90
37870;DHT22;62531;53.326;-1.368;2022-09-02T05:52:20;22.40;50.90
37870;DHT22;62531;53.326;-1.368;2022-09-02T05:56:22;22.30;50.90
37870;DHT22;62531;53.326;-1.368;2022-09-02T06:00:23;22.30;50.90
37870;DHT22;62531;53.326;-1.368;2022-09-02T06:04:25;22.30;50.90
37870;DHT22;62531;53.326;-1.368;2022-09-02T06:08:26;22.30;50.90
37870;DHT22;62531;53.326;-1.368;2022-09-02T06:12:28;22.30;51.00
37870;DHT22;62531;53.326;-1.368;2022-09-02T06:16:30;22.30;51.00
37870;DHT22;62531;53.326;-1.368;2022-09-02T06:20:32;22.30;51.00
37870;DHT22;62531;53.326;-1.368;2022-09-02T06:24:33;22.30;51.00
37870;DHT22;62531;53.326;-1.368;2022-09-02T06:28:34;22.30;51.00
37870;DHT22;62531;53.326;-1.368;2022-09-02T06:32:36;22.30;51.00
37870;DHT22;62531;53.326;-1.368;2022-09-02T06:36:37;22.30;51.10
37870;DHT22;62531;53.326;-1.368;2022-09-02T06:40:50;22.30;51.10
37870;DHT22;62531;53.326;-1.368;2022-09-02T06:44:53;22.20;51.00
37870;DHT22;62531;53.326;-1.368;2022-09-02T06:48:55;22.20;51.20
37870;DHT22;62531;53.326;-1.368;2022-09-02T06:52:56;22.20;51.50
37870;DHT22;62531;53.326;-1.368;2022-09-02T06:56:57;22.20;51.40
37870;DHT22;62531;53.326;-1.368;2022-09-02T07:00:59;22.20;51.30
37870;DHT22;62531;53.326;-1.368;2022-09-02T07:05:00;22.20;51.30
37870;DHT22;62531;53.326;-1.368;2022-09-02T07:09:13;22.20;51.30
37870;DHT22;62531;53.326;-1.368;2022-09-02T07:13:15;22.20;51.70
37870;DHT22;62531;53.326;-1.368;2022-09-02T07:17:16;22.20;51.20
37870;DHT22;62531;53.326;-1.368;2022-09-02T07:21:18;22.20;51.20
37870;DHT22;62531;53.326;-1.368;2022-09-02T07:25:19;22.20;51.20
37870;DHT22;62531;53.326;-1.368;2022-09-02T07:29:22;22.20;51.10
37870;DHT22;62531;53.326;-1.368;2022-09-02T07:33:24;22.20;51.10
37870;DHT22;62531;53.326;-1.368;2022-09-02T07:37:25;22.20;51.10
37870;DHT22;62531;53.326;-1.368;2022-09-02T07:41:27;22.20;51.10
37870;DHT22;62531;53.326;-1.368;2022-09-02T07:45:29;22.20;51.10
37870;DHT22;62531;53.326;-1.368;2022-09-02T07:49:31;22.20;51.10
37870;DHT22;62531;53.326;-1.368;2022-09-02T07:53:32;22.20;51.10
37870;DHT22;62531;53.326;-1.368;2022-09-02T07:57:35;22.20;51.10
37870;DHT22;62531;53.326;-1.368;2022-09-02T08:01:37;22.20;51.10
37870;DHT22;62531;53.326;-1.368;2022-09-02T08:05:39;22.20;52.50
37870;DHT22;62531;53.326;-1.368;2022-09-02T08:09:41;22.10;52.90
37870;DHT22;62531;53.326;-1.368;2022-09-02T08:13:42;22.10;52.90
37870;DHT22;62531;53.326;-1.368;2022-09-02T08:17:43;22.00;53.20
37870;DHT22;62531;53.326;-1.368;2022-09-02T08:21:45;22.00;53.90
37870;DHT22;62531;53.326;-1.368;2022-09-02T08:25:46;22.00;54.40
37870;DHT22;62531;53.326;-1.368;2022-09-02T08:29:47;22.00;54.30
37870;DHT22;62531;53.326;-1.368;2022-09-02T08:33:48;22.00;54.50
37870;DHT22;62531;53.326;-1.368;2022-09-02T08:37:50;22.10;54.40
37870;DHT22;62531;53.326;-1.368;2022-09-02T08:42:08;22.10;54.50
37870;DHT22;62531;53.326;-1.368;2022-09-02T08:46:14;22.00;54.50
37870;DHT22;62531;53.326;-1.368;2022-09-02T08:50:18;21.90;54.80
37870;DHT22;62531;53.326;-1.368;2022-09-02T08:54:45;21.80;54.90
37870;DHT22;62531;53.326;-1.368;2022-09-02T08:58:51;21.80;55.00
37870;DHT22;62531;53.326;-1.368;2022-09-02T09:03:14;21.80;55.00
37870;DHT22;62531;53.326;-1.368;2022-09-02T09:20:06;21.90;55.50
37870;DHT22;62531;53.326;-1.368;2022-09-02T09:24:31;22.00;55.30
37870;DHT22;62531;53.326;-1.368;2022-09-02T09:28:39;22.00;55.20
37870;DHT22;62531;53.326;-1.368;2022-09-02T09:32:53;22.00;55.40
37870;DHT22;62531;53.326;-1.368;2022-09-02T09:36:55;22.10;55.40
37870;DHT22;62531;53.326;-1.368;2022-09-02T09:41:14;22.10;55.30
37870;DHT22;62531;53.326;-1.368;2022-09-02T09:45:27;22.20;55.30
37870;DHT22;62531;53.326;-1.368;2022-09-02T09:49:31;22.30;55.80
37870;DHT22;62531;53.326;-1.368;2022-09-02T09:53:34;22.30;55.30
37870;DHT22;62531;53.326;-1.368;2022-09-02T09:57:37;22.30;55.10
37870;DHT22;62531;53.326;-1.368;2022-09-02T10:01:39;22.40;54.90
37870;DHT22;62531;53.326;-1.368;2022-09-02T10:05:40;22.40;54.80
37870;DHT22;62531;53.326;-1.368;2022-09-02T10:09:41;22.30;54.20
37870;DHT22;62531;53.326;-1.368;2022-09-02T10:13:43;22.30;54.30
37870;DHT22;62531;53.326;-1.368;2022-09-02T10:17:53;22.40;54.50
37870;DHT22;62531;53.326;-1.368;2022-09-02T10:26:41;22.50;54.30
37870;DHT22;62531;53.326;-1.368;2022-09-02T10:52:31;22.60;52.90
37870;DHT22;62531;53.326;-1.368;2022-09-02T10:56:49;22.70;52.90
37870;DHT22;62531;53.326;-1.368;2022-09-02T11:00:54;22.70;52.80
37870;DHT22;62531;53.326;-1.368;2022-09-02T11:05:10;22.70;52.80
37870;DHT22;62531;53.326;-1.368;2022-09-02T11:09:51;22.80;52.60
37870;DHT22;62531;53.326;-1.368;2022-09-02T11:14:25;22.80;52.60
37870;DHT22;62531;53.326;-1.368;2022-09-02T11:22:36;22.90;52.30
37870;DHT22;62531;53.326;-1.368;2022-09-02T11:27:57;22.90;52.30
37870;DHT22;62531;53.326;-1.368;2022-09-02T11:31:48;22.90;52.20
37870;DHT22;62531;53.326;-1.368;2022-09-02T11:35:52;22.90;52.10
37870;DHT22;62531;53.326;-1.368;2022-09-02T11:40:03;22.90;51.80
37870;DHT22;62531;53.326;-1.368;2022-09-02T11:44:20;22.90;51.80
37870;DHT22;62531;53.326;-1.368;2022-09-02T11:57:14;23.10;51.50
37870;DHT22;62531;53.326;-1.368;2022-09-02T12:09:48;23.20;51.40
37870;DHT22;62531;53.326;-1.368;2022-09-02T12:13:49;23.20;51.40
37870;DHT22;62531;53.326;-1.368;2022-09-02T12:26:29;23.10;51.50
37870;DHT22;62531;53.326;-1.368;2022-09-02T12:35:11;23.00;51.50
37870;DHT22;62531;53.326;-1.368;2022-09-02T12:43:31;23.00;51.60
37870;DHT22;62531;53.326;-1.368;2022-09-02T12:48:09;23.00;52.20
37870;DHT22;62531;53.326;-1.368;2022-09-02T12:52:42;23.10;52.30
37870;DHT22;62531;53.326;-1.368;2022-09-02T12:56:47;23.20;52.50
37870;DHT22;62531;53.326;-1.368;2022-09-02T13:13:57;23.30;52.80
37870;DHT22;62531;53.326;-1.368;2022-09-02T13:23:09;23.40;53.20
37870;DHT22;62531;53.326;-1.368;2022-09-02T13:31:58;23.50;53.50
37870;DHT22;62531;53.326;-1.368;2022-09-02T13:36:00;23.60;53.50
37870;DHT22;62531;53.326;-1.368;2022-09-02T13:40:24;23.60;53.50
37870;DHT22;62531;53.326;-1.368;2022-09-02T13:44:27;23.60;53.20
37870;DHT22;62531;53.326;-1.368;2022-09-02T13:48:31;23.70;53.20
37870;DHT22;62531;53.326;-1.368;2022-09-02T13:52:36;23.70;53.30
37870;DHT22;62531;53.326;-1.368;2022-09-02T13:56:38;23.70;53.40
37870;DHT22;62531;53.326;-1.368;2022-09-02T14:00:40;23.80;53.40
37870;DHT22;62531;53.326;-1.368;2022-09-02T14:04:42;23.80;53.50
37870;DHT22;62531;53.326;-1.368;2022-09-02T14:08:44;23.80;53.50
37870;DHT22;62531;53.326;-1.368;2022-09-02T14:12:46;23.90;53.60
37870;DHT22;62531;53.326;-1.368;2022-09-02T14:16:48;23.90;53.60
37870;DHT22;62531;53.326;-1.368;2022-09-02T14:24:58;23.90;53.70
37870;DHT22;62531;53.326;-1.368;2022-09-02T14:28:59;24.00;53.70
37870;DHT22;62531;53.326;-1.368;2022-09-02T14:37:27;24.00;53.70
37870;DHT22;62531;53.326;-1.368;2022-09-02T14:41:33;24.00;53.60
37870;DHT22;62531;53.326;-1.368;2022-09-02T14:45:36;24.10;53.70
37870;DHT22;62531;53.326;-1.368;2022-09-02T14:49:45;24.10;53.60
37870;DHT22;62531;53.326;-1.368;2022-09-02T14:53:47;24.20;53.70
37870;DHT22;62531;53.326;-1.368;2022-09-02T14:58:00;24.20;53.60
37870;DHT22;62531;53.326;-1.368;2022-09-02T15:02:02;24.20;53.60
37870;DHT22;62531;53.326;-1.368;2022-09-02T15:06:03;24.20;53.60
37870;DHT22;62531;53.326;-1.368;2022-09-02T15:10:06;24.30;53.70
37870;DHT22;62531;53.326;-1.368;2022-09-02T15:14:10;24.30;53.60
37870;DHT22;62531;53.326;-1.368;2022-09-02T15:18:13;24.40;53.50
37870;DHT22;62531;53.326;-1.368;2022-09-02T15:22:17;24.40;53.40
37870;DHT22;62531;53.326;-1.368;2022-09-02T15:26:18;24.40;53.50
37870;DHT22;62531;53.326;-1.368;2022-09-02T15:30:19;24.40;53.60
37870;DHT22;62531;53.326;-1.368;2022-09-02T15:34:21;24.40;53.60
37870;DHT22;62531;53.326;-1.368;2022-09-02T15:38:23;24.40;53.60
37870;DHT22;62531;53.326;-1.368;2022-09-02T15:42:24;24.50;53.60
37870;DHT22;62531;53.326;-1.368;2022-09-02T15:46:27;24.50;54.20
37870;DHT22;62531;53.326;-1.368;2022-09-02T15:50:30;24.60;53.60
37870;DHT22;62531;53.326;-1.368;2022-09-02T15:54:34;24.60;53.70
37870;DHT22;62531;53.326;-1.368;2022-09-02T15:58:35;24.60;53.70
37870;DHT22;62531;53.326;-1.368;2022-09-02T16:02:36;24.60;53.60
37870;DHT22;62531;53.326;-1.368;2022-09-02T16:06:39;24.60;53.60
37870;DHT22;62531;53.326;-1.368;2022-09-02T16:10:41;24.60;53.60
37870;DHT22;62531;53.326;-1.368;2022-09-02T16:14:43;24.60;53.60
37870;DHT22;62531;53.326;-1.368;2022-09-02T16:18:51;24.60;53.60
37870;DHT22;62531;53.326;-1.368;2022-09-02T16:22:53;24.70;53.60
37870;DHT22;62531;53.326;-1.368;2022-09-02T16:26:54;24.70;53.70
37870;DHT22;62531;53.326;-1.368;2022-09-02T16:30:57;24.70;53.60
37870;DHT22;62531;53.326;-1.368;2022-09-02T16:34:58;24.70;53.60
37870;DHT22;62531;53.326;-1.368;2022-09-02T16:39:00;24.70;53.70
37870;DHT22;62531;53.326;-1.368;2022-09-02T16:43:03;24.70;53.60
37870;DHT22;62531;53.326;-1.368;2022-09-02T16:47:05;24.70;52.80
37870;DHT22;62531;53.326;-1.368;2022-09-02T16:51:06;24.80;52.50
37870;DHT22;62531;53.326;-1.368;2022-09-02T16:55:07;24.80;52.30
37870;DHT22;62531;53.326;-1.368;2022-09-02T16:59:10;24.80;52.20
37870;DHT22;62531;53.326;-1.368;2022-09-02T17:03:12;24.70;52.00
37870;DHT22;62531;53.326;-1.368;2022-09-02T17:07:14;24.70;52.00
37870;DHT22;62531;53.326;-1.368;2022-09-02T17:11:31;24.70;52.00
37870;DHT22;62531;53.326;-1.368;2022-09-02T17:15:32;24.70;52.10
37870;DHT22;62531;53.326;-1.368;2022-09-02T17:19:34;24.60;52.10
37870;DHT22;62531;53.326;-1.368;2022-09-02T17:23:35;24.50;52.40
37870;DHT22;62531;53.326;-1.368;2022-09-02T17:27:37;24.40;52.20
37870;DHT22;62531;53.326;-1.368;2022-09-02T17:31:38;24.40;52.20
37870;DHT22;62531;53.326;-1.368;2022-09-02T17:35:40;24.40;52.20
37870;DHT22;62531;53.326;-1.368;2022-09-02T17:39:41;24.30;52.30
37870;DHT22;62531;53.326;-1.368;2022-09-02T17:43:42;24.30;52.30
37870;DHT22;62531;53.326;-1.368;2022-09-02T17:47:44;24.30;52.40
37870;DHT22;62531;53.326;-1.368;2022-09-02T17:51:45;24.20;52.40
37870;DHT22;62531;53.326;-1.368;2022-09-02T17:55:48;24.20;52.40
37870;DHT22;62531;53.326;-1.368;2022-09-02T18:00:17;24.20;52.40
37870;DHT22;62531;53.326;-1.368;2022-09-02T18:08:50;24.10;52.50
37870;DHT22;62531;53.326;-1.368;2022-09-02T18:12:55;24.00;52.50
37870;DHT22;62531;53.326;-1.368;2022-09-02T18:21:43;24.00;52.50
37870;DHT22;62531;53.326;-1.368;2022-09-02T18:26:13;23.90;52.50
37870;DHT22;62531;53.326;-1.368;2022-09-02T18:44:33;23.80;52.50
37870;DHT22;62531;53.326;-1.368;2022-09-02T18:48:37;23.80;52.60
37870;DHT22;62531;53.326;-1.368;2022-09-02T18:52:40;23.80;52.60
37870;DHT22;62531;53.326;-1.368;2022-09-02T18:56:50;23.80;52.60
37870;DHT22;62531;53.326;-1.368;2022-09-02T19:00:54;23.70;52.60
37870;DHT22;62531;53.326;-1.368;2022-09-02T19:04:59;23.70;52.60
37870;DHT22;62531;53.326;-1.368;2022-09-02T19:09:06;23.70;52.60
37870;DHT22;62531;53.326;-1.368;2022-09-02T19:13:07;23.70;52.60
37870;DHT22;62531;53.326;-1.368;2022-09-02T19:17:08;23.60;52.60
37870;DHT22;62531;53.326;-1.368;2022-09-02T19:21:17;23.60;52.60
37870;DHT22;62531;53.326;-1.368;2022-09-02T19:25:23;23.60;52.60
37870;DHT22;62531;53.326;-1.368;2022-09-02T19:29:25;23.60;52.60
37870;DHT22;62531;53.326;-1.368;2022-09-02T19:33:28;23.60;52.60
37870;DHT22;62531;53.326;-1.368;2022-09-02T19:37:29;23.60;52.60
37870;DHT22;62531;53.326;-1.368;2022-09-02T19:41:31;23.60;52.60
37870;DHT22;62531;53.326;-1.368;2022-09-02T19:45:34;23.50;52.50
37870;DHT22;62531;53.326;-1.368;2022-09-02T19:49:37;23.50;52.50
37870;DHT22;62531;53.326;-1.368;2022-09-02T19:53:38;23.50;52.60
37870;DHT22;62531;53.326;-1.368;2022-09-02T19:57:40;23.50;52.50
37870;DHT22;62531;53.326;-1.368;2022-09-02T20:01:41;23.50;52.60
37870;DHT22;62531;53.326;-1.368;2022-09-02T20:05:42;23.50;52.50
37870;DHT22;62531;53.326;-1.368;2022-09-02T20:09:44;23.50;52.50
37870;DHT22;62531;53.326;-1.368;2022-09-02T20:13:45;23.50;52.60
37870;DHT22;62531;53.326;-1.368;2022-09-02T20:17:46;23.40;52.50
37870;DHT22;62531;53.326;-1.368;2022-09-02T20:21:47;23.40;52.50
37870;DHT22;62531;53.326;-1.368;2022-09-02T20:30:09;23.40;52.50
37870;DHT22;62531;53.326;-1.368;2022-09-02T20:34:26;23.40;52.50
37870;DHT22;62531;53.326;-1.368;2022-09-02T20:47:31;23.40;52.50
37870;DHT22;62531;53.326;-1.368;2022-09-02T20:51:42;23.30;52.40
37870;DHT22;62531;53.326;-1.368;2022-09-02T20:56:16;23.30;52.50
37870;DHT22;62531;53.326;-1.368;2022-09-02T21:00:19;23.30;52.40
37870;DHT22;62531;53.326;-1.368;2022-09-02T21:08:31;23.30;52.40
37870;DHT22;62531;53.326;-1.368;2022-09-02T21:16:57;23.30;52.50
37870;DHT22;62531;53.326;-1.368;2022-09-02T21:25:31;23.30;53.00
37870;DHT22;62531;53.326;-1.368;2022-09-02T21:33:44;23.20;52.40
37870;DHT22;62531;53.326;-1.368;2022-09-02T21:37:49;23.20;52.40
37870;DHT22;62531;53.326;-1.368;2022-09-02T21:50:56;23.20;52.40
37870;DHT22;62531;53.326;-1.368;2022-09-02T21:59:40;23.20;52.40
37870;DHT22;62531;53.326;-1.368;2022-09-02T22:03:49;23.20;52.40
37870;DHT22;62531;53.326;-1.368;2022-09-02T22:12:36;23.20;52.40
37870;DHT22;62531;53.326;-1.368;2022-09-02T22:16:56;23.20;52.40
37870;DHT22;62531;53.326;-1.368;2022-09-02T22:21:51;23.20;52.40
37870;DHT22;62531;53.326;-1.368;2022-09-02T22:25:28;23.20;52.40
37870;DHT22;62531;53.326;-1.368;2022-09-02T22:29:46;23.10;52.30
37870;DHT22;62531;53.326;-1.368;2022-09-02T22:33:51;23.10;52.30
37870;DHT22;62531;53.326;-1.368;2022-09-02T22:51:07;23.10;52.30
37870;DHT22;62531;53.326;-1.368;2022-09-02T22:55:52;23.10;52.30
37870;DHT22;62531;53.326;-1.368;2022-09-02T23:00:08;23.10;52.30
37870;DHT22;62531;53.326;-1.368;2022-09-02T23:08:28;23.00;52.20
37870;DHT22;62531;53.326;-1.368;2022-09-02T23:13:00;23.00;52.30
37870;DHT22;62531;53.326;-1.368;2022-09-02T23:17:27;23.00;52.30
37870;DHT22;62531;53.326;-1.368;2022-09-02T23:21:51;23.00;52.30
37870;DHT22;62531;53.326;-1.368;2022-09-02T23:30:18;23.00;52.30
37870;DHT22;62531;53.326;-1.368;2022-09-02T23:42:59;23.00;52.30
37870;DHT22;62531;53.326;-1.368;2022-09-02T23:51:17;23.00;52.30
37870;DHT22;62531;53.326;-1.368;2022-09-02T23:55:27;23.00;52.30
37870;DHT22;62531;53.326;-1.368;2022-09-02T23:59:45;22.90;52.20
